Time;durP1;ratioP1;P1;durP2;ratioP2;P2;SDS_P1;SDS_P2;PMS_P1;PMS_P2;Temp;Humidity;BMP_temperature;BMP_pressure;BME280_temperature;BME280_humidity;BME280_pressure;Samples;Min_cycle;Max_cycle;Signal;HPM_P1;HPM_P2
2022/03/13 00:00:22;;;;;;;18.97;14.57;;;;;;;7.52;63.40;101084.59;5093169;28;20160;-68
2022/03/13 00:02:50;;;;;;;19.93;13.10;;;;;;;7.52;63.36;101088.06;5092983;28;20218;-68
2022/03/13 00:05:17;;;;;;;18.37;13.83;;;;;;;7.51;63.51;101088.97;5093073;28;20193;-68
2022/03/13 00:07:45;;;;;;;19.30;12.87;;;;;;;7.40;63.96;101090.94;5093032;28;20202;-68
2022/03/13 00:10:24;;;;;;;16.53;14.53;;;;;;;7.38;63.77;101083.16;5093019;28;20670;-68
2022/03/13 00:12:50;;;;;;;19.17;13.93;;;;;;;7.33;63.67;101086.75;5093374;28;20207;-68
2022/03/13 00:15:25;;;;;;;20.53;14.43;;;;;;;7.30;63.72;101087.69;5096322;28;20192;-68
2022/03/13 00:17:52;;;;;;;19.70;15.53;;;;;;;7.36;63.28;101087.56;5096725;28;20183;-68
2022/03/13 00:20:20;;;;;;;19.53;13.93;;;;;;;7.29;63.85;101085.97;5096293;28;20193;-68
2022/03/13 00:22:47;;;;;;;15.47;13.80;;;;;;;7.28;63.86;101085.97;5096096;28;20273;-68
2022/03/13 00:25:14;;;;;;;16.00;13.57;;;;;;;7.14;64.39;101088.88;5096093;28;20182;-68
2022/03/13 00:27:41;;;;;;;14.13;12.80;;;;;;;7.04;64.86;101095.19;5096055;28;20197;-68
2022/03/13 00:30:10;;;;;;;20.67;14.50;;;;;;;7.05;64.52;101094.28;5096030;28;20193;-68
2022/03/13 00:32:37;;;;;;;15.77;14.00;;;;;;;6.68;66.18;101101.97;5095975;28;20207;-68
2022/03/13 00:35:03;;;;;;;15.77;13.63;;;;;;;6.55;66.78;101106.53;5095955;28;20209;-68
2022/03/13 00:37:30;;;;;;;17.80;13.90;;;;;;;6.49;67.18;101094.50;5096003;28;20203;-68
2022/03/13 00:39:58;;;;;;;15.73;13.43;;;;;;;6.52;67.39;101101.41;5095803;28;20186;-68
2022/03/13 00:42:24;;;;;;;18.03;14.10;;;;;;;6.47;67.43;101096.28;5096220;28;20218;-68
2022/03/13 00:44:51;;;;;;;16.33;13.77;;;;;;;6.48;67.46;101100.59;5095741;28;20534;-68
2022/03/13 00:47:19;;;;;;;17.57;14.40;;;;;;;6.63;66.84;101096.84;5095624;28;20198;-68
2022/03/13 00:49:46;;;;;;;16.97;12.57;;;;;;;6.58;66.82;101096.97;5095922;28;20197;-68
2022/03/13 00:52:14;;;;;;;15.20;13.33;;;;;;;6.61;66.63;101090.81;5095475;28;20219;-67
2022/03/13 00:54:40;;;;;;;18.90;14.17;;;;;;;6.53;66.76;101100.53;5095535;28;20227;-67
2022/03/13 00:57:07;;;;;;;20.07;14.57;;;;;;;6.52;66.78;101096.22;5095638;28;20206;-67
2022/03/13 00:59:34;;;;;;;15.70;13.43;;;;;;;6.53;66.52;101093.56;5095684;28;20186;-67
2022/03/13 01:02:00;;;;;;;16.70;13.83;;;;;;;6.43;66.83;101084.25;5095352;28;20206;-67
2022/03/13 01:04:27;;;;;;;17.70;14.17;;;;;;;6.40;67.25;101084.28;5095925;28;20254;-68
2022/03/13 01:06:54;;;;;;;13.83;12.37;;;;;;;6.34;67.58;101090.44;5095281;28;20194;-68
2022/03/13 01:09:20;;;;;;;19.70;13.47;;;;;;;6.30;67.67;101083.59;5095249;28;20198;-68
2022/03/13 01:11:47;;;;;;;15.97;13.30;;;;;;;6.25;68.20;101082.81;5095170;28;20206;-68
2022/03/13 01:14:15;;;;;;;19.33;12.17;;;;;;;6.23;68.22;101092.38;5095217;28;20182;-68
2022/03/13 01:16:43;;;;;;;14.00;12.53;;;;;;;6.24;68.38;101078.50;5095253;28;20214;-68
2022/03/13 01:19:10;;;;;;;15.33;13.70;;;;;;;6.22;67.97;101082.88;5095897;28;20190;-68
2022/03/13 01:21:42;;;;;;;15.70;13.87;;;;;;;6.18;68.27;101081.19;5094952;28;20631;-67
2022/03/13 01:24:14;;;;;;;16.07;13.73;;;;;;;6.11;68.56;101068.34;5094498;28;20187;-67
2022/03/13 01:26:41;;;;;;;14.63;13.03;;;;;;;6.18;68.69;101070.81;5095066;28;20578;-67
2022/03/13 01:29:13;;;;;;;14.80;12.23;;;;;;;6.10;68.99;101070.09;5095487;28;20560;-67
2022/03/13 01:31:44;;;;;;;17.07;12.80;;;;;;;5.98;68.79;101062.47;5095157;28;20205;-68
2022/03/13 01:34:26;;;;;;;18.07;13.90;;;;;;;5.91;69.71;101053.94;5095105;28;20199;-68
2022/03/13 01:36:52;;;;;;;15.43;13.43;;;;;;;5.98;69.71;101049.50;5094988;28;20197;-68
2022/03/13 01:39:19;;;;;;;17.43;14.33;;;;;;;5.92;69.56;101057.38;5094980;28;20198;-68
2022/03/13 01:41:45;;;;;;;20.43;14.43;;;;;;;5.94;69.54;101056.50;5094861;28;20206;-68
2022/03/13 01:44:12;;;;;;;19.23;13.97;;;;;;;5.87;69.53;101044.47;5094717;28;20189;-69
2022/03/13 01:46:38;;;;;;;16.40;14.70;;;;;;;5.84;69.66;101041.88;5094881;28;20190;-69
2022/03/13 01:49:07;;;;;;;15.77;14.17;;;;;;;5.87;69.40;101030.59;5094791;28;20194;-69
2022/03/13 01:51:35;;;;;;;15.10;13.57;;;;;;;5.85;69.12;101027.16;5094875;28;20206;-68
2022/03/13 01:54:05;;;;;;;22.23;14.07;;;;;;;5.81;68.85;101028.97;5094722;28;20189;-68
2022/03/13 01:56:33;;;;;;;16.70;13.93;;;;;;;5.84;68.68;101030.63;5094288;28;20194;-68
2022/03/13 01:59:02;;;;;;;19.53;14.70;;;;;;;5.78;68.53;101019.47;5094665;28;20190;-68
2022/03/13 02:01:29;;;;;;;16.33;13.63;;;;;;;5.77;68.85;101014.28;5094243;28;20216;-68
2022/03/13 02:03:57;;;;;;;16.70;13.77;;;;;;;5.75;68.50;101021.25;5094227;28;20197;-68
2022/03/13 02:06:24;;;;;;;14.93;13.50;;;;;;;5.67;68.75;101013.59;5094478;28;20190;-68
2022/03/13 02:08:51;;;;;;;19.47;13.93;;;;;;;5.83;68.46;101006.41;5094440;28;20193;-68
2022/03/13 02:11:19;;;;;;;16.33;13.57;;;;;;;5.77;67.95;100993.50;5094061;28;20186;-68
2022/03/13 02:13:50;;;;;;;19.90;14.77;;;;;;;5.76;67.98;100994.41;5094379;28;20194;-68
2022/03/13 02:16:19;;;;;;;20.43;14.33;;;;;;;5.64;68.23;100999.78;5094612;28;20635;-68
2022/03/13 02:18:53;;;;;;;16.73;14.53;;;;;;;5.79;67.87;100994.38;5093903;28;20213;-68
2022/03/13 02:21:24;;;;;;;17.27;14.87;;;;;;;5.89;68.57;100992.44;5094060;28;20196;-67
2022/03/13 02:23:55;;;;;;;16.60;14.47;;;;;;;5.79;68.50;100992.63;5094457;28;20634;-67
2022/03/13 02:26:22;;;;;;;19.30;15.47;;;;;;;5.88;67.90;100995.94;5094105;28;20186;-67
2022/03/13 02:28:51;;;;;;;19.40;14.83;;;;;;;5.91;67.12;100991.56;5093849;28;20545;-67
2022/03/13 02:31:27;;;;;;;22.50;14.40;;;;;;;5.90;66.98;100995.00;5093943;28;20656;-67
2022/03/13 02:33:53;;;;;;;16.53;13.67;;;;;;;6.02;64.84;100986.19;5094063;28;20235;-67
2022/03/13 02:36:40;;;;;;;16.87;14.83;;;;;;;5.97;64.08;100985.41;5093909;28;20274;-67
2022/03/13 02:39:08;;;;;;;22.50;14.67;;;;;;;5.94;63.85;100980.28;5093764;28;20172;-67
2022/03/13 02:41:35;;;;;;;19.03;14.87;;;;;;;5.99;61.88;100978.44;5093806;28;20210;-67
2022/03/13 02:44:02;;;;;;;20.47;14.80;;;;;;;6.02;60.69;100974.03;5093865;28;20192;-67
2022/03/13 02:46:46;;;;;;;19.97;15.00;;;;;;;5.96;60.82;100973.31;5093813;28;20205;-67
2022/03/13 02:49:17;;;;;;;19.60;14.67;;;;;;;5.91;63.23;100972.53;5093521;28;20660;-67
2022/03/13 02:51:46;;;;;;;23.20;15.00;;;;;;;5.99;61.63;100965.44;5093456;28;20212;-67
2022/03/13 02:54:14;;;;;;;27.83;14.90;;;;;;;5.78;62.13;100964.91;5093750;28;20189;-67
2022/03/13 02:56:42;;;;;;;23.87;16.50;;;;;;;5.80;60.48;100960.56;5093630;28;20540;-68
2022/03/13 02:59:10;;;;;;;20.13;16.23;;;;;;;5.92;58.81;100961.22;5093742;28;20170;-68
2022/03/13 03:01:37;;;;;;;20.40;14.33;;;;;;;6.00;57.24;100965.44;5093321;28;20217;-67
2022/03/13 03:04:05;;;;;;;16.57;12.20;;;;;;;5.97;55.35;100965.47;5093331;28;20273;-68
2022/03/13 03:06:33;;;;;;;14.33;12.80;;;;;;;5.96;55.13;100965.50;5093596;28;20193;-68
2022/03/13 03:09:02;;;;;;;13.37;12.13;;;;;;;5.96;53.60;100974.16;5093584;28;20186;-68
2022/03/13 03:11:32;;;;;;;21.13;15.13;;;;;;;5.97;53.65;100975.88;5093362;28;20211;-68
2022/03/13 03:14:03;;;;;;;28.63;16.53;;;;;;;5.91;53.67;100975.13;5093310;28;20540;-68
2022/03/13 03:16:30;;;;;;;13.93;12.50;;;;;;;5.95;53.77;100985.44;5093558;28;20568;-68
2022/03/13 03:18:58;;;;;;;13.33;12.03;;;;;;;5.97;53.05;100981.06;5093714;28;20225;-68
2022/03/13 03:21:25;;;;;;;13.47;12.27;;;;;;;5.98;53.19;100971.53;5092981;28;20225;-67
2022/03/13 03:23:51;;;;;;;18.17;13.40;;;;;;;6.01;53.46;100977.53;5093172;28;20186;-67
2022/03/13 03:26:19;;;;;;;15.27;12.20;;;;;;;5.97;52.92;100980.22;5093140;28;20174;-67
2022/03/13 03:28:46;;;;;;;13.67;12.20;;;;;;;5.94;53.34;100975.06;5093138;28;20178;-67
2022/03/13 03:31:13;;;;;;;24.67;12.33;;;;;;;5.90;53.62;100986.38;5093020;28;20185;-67
2022/03/13 03:33:40;;;;;;;16.10;13.07;;;;;;;5.82;53.13;100980.44;5093122;28;20182;-67
2022/03/13 03:36:06;;;;;;;14.50;12.47;;;;;;;5.78;53.66;100975.28;5093351;28;20189;-67
2022/03/13 03:38:33;;;;;;;16.07;13.30;;;;;;;5.70;54.09;100976.31;5093009;28;20574;-67
2022/03/13 03:40:59;;;;;;;16.33;12.90;;;;;;;5.62;54.58;100970.41;5093049;28;20182;-67
2022/03/13 03:43:26;;;;;;;15.93;12.53;;;;;;;5.56;55.17;100960.97;5093173;28;20209;-67
2022/03/13 03:45:56;;;;;;;14.57;12.97;;;;;;;5.37;55.24;100959.56;5093531;28;20189;-67
2022/03/13 03:48:23;;;;;;;14.80;13.10;;;;;;;5.37;55.20;100962.16;5095112;28;20639;-67
2022/03/13 03:50:50;;;;;;;13.93;12.63;;;;;;;5.30;55.06;100956.22;5096843;28;20182;-67
2022/03/13 03:53:16;;;;;;;12.77;11.47;;;;;;;5.26;55.50;100962.31;5096697;28;20713;-67
2022/03/13 03:55:43;;;;;;;16.90;13.10;;;;;;;5.18;55.72;100961.59;5096715;28;20193;-67
2022/03/13 03:58:13;;;;;;;16.80;12.37;;;;;;;5.22;55.13;100964.13;5097155;28;20286;-67
2022/03/13 04:00:39;;;;;;;14.33;12.43;;;;;;;5.17;54.78;100965.91;5096659;28;20229;-67
2022/03/13 04:03:06;;;;;;;18.53;12.60;;;;;;;5.21;54.41;100961.53;5096534;28;20202;-67
2022/03/13 04:05:34;;;;;;;22.43;13.50;;;;;;;5.26;54.28;100967.50;5096497;28;20524;-67
2022/03/13 04:08:00;;;;;;;17.77;13.47;;;;;;;5.19;54.61;100971.06;5096477;28;20186;-67
2022/03/13 04:10:27;;;;;;;14.07;12.57;;;;;;;5.04;54.61;100961.78;5096702;28;20544;-67
2022/03/13 04:12:54;;;;;;;14.47;11.97;;;;;;;5.10;54.76;100964.28;5096308;28;20203;-67
2022/03/13 04:15:20;;;;;;;18.20;12.63;;;;;;;5.09;55.15;100962.59;5096592;28;20693;-67
2022/03/13 04:17:47;;;;;;;15.53;11.47;;;;;;;5.03;55.35;100961.81;5096794;28;20243;-67
2022/03/13 04:20:14;;;;;;;13.40;12.10;;;;;;;4.96;55.85;100953.25;5096370;28;20208;-67
2022/03/13 04:22:40;;;;;;;12.50;11.40;;;;;;;4.93;56.51;100955.91;5096990;28;20205;-67
2022/03/13 04:25:07;;;;;;;18.73;14.00;;;;;;;4.87;56.54;100954.25;5096189;28;20190;-67
2022/03/13 04:27:35;;;;;;;14.00;12.53;;;;;;;4.89;56.86;100949.91;5096110;28;20676;-67
2022/03/13 04:30:02;;;;;;;13.57;11.47;;;;;;;4.81;57.64;100950.88;5096059;28;20656;-67
2022/03/13 04:32:29;;;;;;;14.70;13.10;;;;;;;4.89;57.00;100949.03;5095956;28;20222;-67
2022/03/13 04:34:56;;;;;;;13.30;11.70;;;;;;;4.75;58.56;100948.38;5095989;28;20186;-67
2022/03/13 04:37:23;;;;;;;17.03;12.53;;;;;;;4.83;57.58;100941.34;5096423;28;20189;-67
2022/03/13 04:39:51;;;;;;;16.90;13.53;;;;;;;4.80;57.85;100938.81;5096176;28;20247;-67
2022/03/13 04:42:18;;;;;;;18.07;13.40;;;;;;;4.73;57.30;100943.22;5095795;28;20209;-67
2022/03/13 04:44:46;;;;;;;16.80;13.47;;;;;;;4.68;56.38;100951.03;5095794;28;20186;-67
2022/03/13 04:47:12;;;;;;;20.97;13.63;;;;;;;4.68;56.44;100955.38;5095759;28;20555;-67
2022/03/13 04:49:40;;;;;;;19.70;14.03;;;;;;;4.74;55.66;100959.63;5095974;28;20197;-67
2022/03/13 04:52:12;;;;;;;19.33;13.40;;;;;;;4.68;55.85;100953.63;5095606;28;20213;-67
2022/03/13 04:54:39;;;;;;;19.67;13.17;;;;;;;4.65;56.06;100964.06;5095907;28;20185;-67
2022/03/13 04:57:05;;;;;;;13.13;11.90;;;;;;;4.60;56.55;100963.25;5096159;28;20259;-67
2022/03/13 04:59:32;;;;;;;15.37;12.83;;;;;;;4.57;56.42;100967.59;5094774;28;20687;-67
2022/03/13 05:01:59;;;;;;;25.03;14.57;;;;;;;4.62;55.82;100982.25;5095410;28;20284;-67
2022/03/13 05:04:26;;;;;;;19.57;15.80;;;;;;;4.52;55.97;100970.28;5095321;28;20200;-67
2022/03/13 05:06:53;;;;;;;16.93;15.20;;;;;;;4.51;55.96;100973.75;5095376;28;20190;-67
2022/03/13 05:09:19;;;;;;;23.23;16.43;;;;;;;4.45;56.49;100968.63;5095588;28;20187;-67
2022/03/13 05:11:46;;;;;;;16.53;13.53;;;;;;;4.30;56.12;100969.69;5095765;28;20210;-67
2022/03/13 05:14:13;;;;;;;25.87;14.93;;;;;;;4.23;57.06;100969.78;5076965;28;20194;-67
2022/03/13 05:16:39;;;;;;;14.90;12.93;;;;;;;4.07;57.57;100975.13;5095730;28;20189;-67
2022/03/13 05:19:06;;;;;;;17.17;13.43;;;;;;;4.02;57.07;100969.13;5095051;28;20202;-67
2022/03/13 05:21:40;;;;;;;27.70;13.53;;;;;;;4.05;56.39;100966.50;5095203;28;20208;-67
2022/03/13 05:24:07;;;;;;;16.93;12.23;;;;;;;4.13;55.53;100969.84;5095046;28;20181;-67
2022/03/13 05:26:33;;;;;;;14.23;12.00;;;;;;;4.10;55.54;100971.63;5094964;28;20200;-67
2022/03/13 05:29:00;;;;;;;15.27;12.07;;;;;;;4.07;56.33;100969.06;5094964;28;20186;-67
2022/03/13 05:31:27;;;;;;;14.90;12.17;;;;;;;4.00;57.25;100967.41;5094979;28;20201;-68
2022/03/13 05:33:54;;;;;;;15.27;12.50;;;;;;;3.97;58.03;100960.53;5094874;28;20193;-68
2022/03/13 05:36:20;;;;;;;13.70;12.23;;;;;;;3.89;57.68;100966.66;5095081;28;20208;-68
2022/03/13 05:38:47;;;;;;;13.93;11.97;;;;;;;4.02;59.61;100961.34;5095151;28;20202;-68
2022/03/13 05:41:16;;;;;;;15.90;12.53;;;;;;;3.94;59.73;100952.81;5094625;28;20189;-68
2022/03/13 05:43:43;;;;;;;22.13;13.20;;;;;;;3.94;59.60;100954.53;5095184;28;20181;-68
2022/03/13 05:46:10;;;;;;;16.27;12.40;;;;;;;3.86;60.01;100967.56;5076829;28;20199;-68
2022/03/13 05:48:37;;;;;;;17.47;12.17;;;;;;;3.76;60.02;100952.97;5094552;28;20317;-68
2022/03/13 05:51:03;;;;;;;21.97;13.90;;;;;;;3.79;59.17;100958.16;5094838;28;20178;-67
2022/03/13 05:53:29;;;;;;;14.43;12.37;;;;;;;3.80;60.44;100958.13;5094715;28;20211;-67
2022/03/13 05:55:56;;;;;;;26.67;12.57;;;;;;;3.78;59.24;100949.50;5094443;28;20186;-67
2022/03/13 05:58:23;;;;;;;20.43;13.97;;;;;;;3.80;59.29;100959.84;5094565;28;20562;-67
2022/03/13 06:00:54;;;;;;;22.00;12.27;;;;;;;3.93;58.74;100956.28;5094247;28;20190;-67
2022/03/13 06:03:21;;;;;;;14.63;12.30;;;;;;;3.86;57.41;100955.47;5094240;28;20219;-67
2022/03/13 06:05:48;;;;;;;17.00;12.37;;;;;;;3.93;58.67;100961.47;5094474;28;20215;-67
2022/03/13 06:08:15;;;;;;;17.47;13.03;;;;;;;3.97;58.29;100954.50;5094177;28;20199;-67
2022/03/13 06:10:41;;;;;;;21.53;12.33;;;;;;;3.93;59.86;100951.09;5093789;28;20195;-67
2022/03/13 06:13:08;;;;;;;19.27;13.43;;;;;;;3.99;59.22;100955.31;5094334;28;20214;-67
2022/03/13 06:15:34;;;;;;;15.97;13.30;;;;;;;3.96;60.05;100958.81;5094055;28;20196;-67
2022/03/13 06:18:03;;;;;;;14.67;12.90;;;;;;;4.08;58.66;100953.53;5094154;28;20205;-67
2022/03/13 06:20:29;;;;;;;15.73;13.17;;;;;;;4.23;58.52;100956.81;5093873;28;20204;-67
2022/03/13 06:22:57;;;;;;;17.27;12.50;;;;;;;4.24;58.23;100954.19;5093896;28;20212;-67
2022/03/13 06:25:23;;;;;;;15.93;13.43;;;;;;;4.32;56.78;100947.19;5094476;28;20177;-67
2022/03/13 06:27:50;;;;;;;18.80;12.80;;;;;;;4.31;59.65;100945.47;5093880;28;20196;-68
2022/03/13 06:30:19;;;;;;;14.77;12.60;;;;;;;4.44;58.62;100941.00;5094404;28;20548;-67
2022/03/13 06:32:49;;;;;;;18.17;12.97;;;;;;;4.53;54.76;100951.25;5093783;28;20198;-68
2022/03/13 06:35:18;;;;;;;15.63;12.40;;;;;;;4.83;53.25;100942.19;5093718;28;20190;-68
2022/03/13 06:37:45;;;;;;;17.87;13.20;;;;;;;5.02;53.04;100950.56;5093881;28;20528;-68
2022/03/13 06:40:16;;;;;;;16.10;14.23;;;;;;;5.12;52.28;100952.16;5093981;28;20185;-68
2022/03/13 06:42:42;;;;;;;19.37;13.90;;;;;;;5.25;51.26;100945.88;5093801;28;20214;-67
2022/03/13 06:45:10;;;;;;;18.27;13.97;;;;;;;5.23;51.43;100954.59;5093914;28;20186;-67
2022/03/13 06:47:38;;;;;;;16.50;13.80;;;;;;;5.21;52.24;100966.72;5094065;28;20186;-68
2022/03/13 06:50:06;;;;;;;16.70;12.67;;;;;;;5.21;51.07;100967.59;5094109;28;20178;-68
2022/03/13 06:52:33;;;;;;;21.70;13.77;;;;;;;5.30;50.87;100965.75;5093463;28;20552;-68
2022/03/13 06:55:00;;;;;;;14.50;12.80;;;;;;;5.39;52.25;100963.00;5093738;28;20201;-68
2022/03/13 06:57:27;;;;;;;19.13;12.87;;;;;;;5.46;51.86;100970.66;5093744;28;20186;-68
2022/03/13 06:59:54;;;;;;;18.50;12.90;;;;;;;5.43;51.66;100975.91;5093596;28;20214;-68
2022/03/13 07:02:20;;;;;;;24.40;14.57;;;;;;;5.56;50.47;100979.13;5093503;28;20284;-68
2022/03/13 07:04:47;;;;;;;21.13;13.00;;;;;;;5.67;50.38;100972.03;5093609;28;20190;-68
2022/03/13 07:07:13;;;;;;;17.17;12.33;;;;;;;5.78;50.52;100979.63;5093611;28;20190;-68
2022/03/13 07:09:40;;;;;;;16.23;12.70;;;;;;;6.00;49.98;100977.53;5093899;28;20182;-68
2022/03/13 07:12:11;;;;;;;17.73;13.90;;;;;;;6.10;49.81;100984.31;5093255;28;20573;-68
2022/03/13 07:14:42;;;;;;;14.77;12.43;;;;;;;6.21;49.22;100973.69;5093327;28;20174;-68
2022/03/13 07:17:08;;;;;;;17.53;13.13;;;;;;;6.44;49.61;100976.72;5093250;28;20189;-68
2022/03/13 07:19:35;;;;;;;15.37;13.57;;;;;;;6.35;50.42;100987.28;5093182;28;20225;-68
2022/03/13 07:22:01;;;;;;;18.77;13.33;;;;;;;6.38;49.26;100991.59;5093105;28;20213;-68
2022/03/13 07:24:28;;;;;;;18.57;14.03;;;;;;;6.41;49.60;100979.34;5096765;28;20558;-68
2022/03/13 07:26:54;;;;;;;18.63;14.07;;;;;;;6.42;48.85;100977.59;5097256;28;20194;-69
2022/03/13 07:29:23;;;;;;;22.33;14.03;;;;;;;6.57;48.47;100979.91;5097307;28;20186;-69
2022/03/13 07:31:49;;;;;;;25.40;13.50;;;;;;;6.70;48.61;100983.97;5097174;28;20251;-68
2022/03/13 07:34:16;;;;;;;16.63;13.27;;;;;;;6.82;47.57;100988.91;5097246;28;20556;-68
2022/03/13 07:36:42;;;;;;;18.03;13.03;;;;;;;6.86;47.56;100981.91;5097361;28;20192;-68
2022/03/13 07:39:09;;;;;;;23.43;14.30;;;;;;;6.92;48.08;100978.28;5097515;28;20197;-68
2022/03/13 07:41:35;;;;;;;22.93;12.67;;;;;;;7.04;46.71;100983.22;5096980;28;20211;-68
2022/03/13 07:44:04;;;;;;;19.30;14.17;;;;;;;7.14;46.75;100980.41;5097332;28;20190;-68
2022/03/13 07:46:30;;;;;;;16.37;13.17;;;;;;;7.18;46.07;100983.78;5096945;28;20741;-68
2022/03/13 07:48:57;;;;;;;19.47;14.20;;;;;;;7.20;46.67;100976.78;5097165;28;20271;-68
2022/03/13 07:51:23;;;;;;;17.13;13.60;;;;;;;7.46;47.10;100976.16;5096775;28;20221;-67
2022/03/13 07:53:50;;;;;;;18.80;14.43;;;;;;;7.64;45.17;100974.84;5097086;28;20238;-68
2022/03/13 07:56:16;;;;;;;18.20;15.00;;;;;;;7.74;45.03;100971.13;5096992;28;20191;-69
2022/03/13 07:58:43;;;;;;;19.77;15.50;;;;;;;7.82;46.11;100969.19;5096648;28;20204;-69
2022/03/13 08:01:09;;;;;;;19.07;15.33;;;;;;;8.00;44.67;100973.94;5096523;28;20654;-68
2022/03/13 08:03:38;;;;;;;24.47;15.93;;;;;;;8.00;43.77;100970.44;5096618;28;20272;-68
2022/03/13 08:06:05;;;;;;;19.07;15.87;;;;;;;8.04;44.18;100963.41;5096832;28;20554;-68
2022/03/13 08:08:36;;;;;;;27.17;16.60;;;;;;;8.13;44.57;100966.59;5097097;28;20173;-68
2022/03/13 08:11:03;;;;;;;23.23;16.40;;;;;;;8.16;45.35;100963.06;5096455;28;20189;-68
2022/03/13 08:13:29;;;;;;;24.77;17.27;;;;;;;8.26;44.89;100962.75;5096899;28;20216;-68
2022/03/13 08:15:59;;;;;;;21.23;16.37;;;;;;;8.35;45.14;100971.22;5096639;28;20185;-68
2022/03/13 08:18:27;;;;;;;23.20;16.37;;;;;;;8.40;46.23;100961.56;5096502;28;20263;-68
2022/03/13 08:20:53;;;;;;;18.70;15.40;;;;;;;8.61;45.48;100970.53;5096591;28;20194;-69
2022/03/13 08:23:20;;;;;;;20.83;15.57;;;;;;;8.70;44.72;100963.28;5096471;28;20206;-68
2022/03/13 08:25:47;;;;;;;22.33;15.97;;;;;;;8.81;44.66;100965.59;5096213;28;20194;-69
2022/03/13 08:28:13;;;;;;;24.13;17.27;;;;;;;8.92;45.89;100958.25;5096438;28;20190;-69
2022/03/13 08:30:40;;;;;;;24.97;16.67;;;;;;;8.96;44.71;100959.88;5096131;28;20177;-68
2022/03/13 08:33:07;;;;;;;22.13;16.77;;;;;;;9.17;44.07;100962.75;5095996;28;20210;-68
2022/03/13 08:35:34;;;;;;;21.90;16.73;;;;;;;9.31;43.58;100973.59;5077754;28;20193;-68
2022/03/13 08:38:00;;;;;;;26.20;17.50;;;;;;;9.39;43.36;100961.16;5096379;28;20170;-68
2022/03/13 08:40:29;;;;;;;21.43;16.37;;;;;;;9.45;43.15;100960.94;5095884;28;20214;-68
2022/03/13 08:42:56;;;;;;;17.20;15.13;;;;;;;9.56;43.40;100976.28;5095763;28;20207;-68
2022/03/13 08:45:23;;;;;;;21.33;15.47;;;;;;;9.68;41.85;100961.94;5095803;28;20193;-68
2022/03/13 08:47:49;;;;;;;27.10;16.57;;;;;;;9.75;42.61;100963.44;5095990;28;20199;-68
2022/03/13 08:50:16;;;;;;;18.23;15.57;;;;;;;9.91;41.74;100964.63;5096017;28;20167;-69
2022/03/13 08:52:43;;;;;;;19.73;15.63;;;;;;;10.01;40.99;100966.03;5096122;28;20209;-69
2022/03/13 08:55:13;;;;;;;27.63;15.77;;;;;;;10.11;40.72;100961.31;5095685;28;20195;-69
2022/03/13 08:57:42;;;;;;;24.27;16.87;;;;;;;10.23;41.63;100957.44;5095799;28;20185;-69
2022/03/13 09:00:11;;;;;;;19.07;15.97;;;;;;;10.55;41.62;100957.09;5095448;28;20206;-69
2022/03/13 09:02:38;;;;;;;20.40;16.23;;;;;;;10.95;40.31;100955.59;5096093;28;20695;-69
2022/03/13 09:05:05;;;;;;;28.77;16.73;;;;;;;11.30;38.93;100952.44;5077208;28;20198;-69
2022/03/13 09:07:34;;;;;;;22.87;17.73;;;;;;;11.70;38.56;100944.66;5095392;28;20199;-69
2022/03/13 09:10:02;;;;;;;19.13;14.97;;;;;;;12.09;38.96;100945.63;5096002;28;20181;-68
2022/03/13 09:12:31;;;;;;;18.23;15.10;;;;;;;12.34;36.98;100941.91;5095239;28;20708;-68
2022/03/13 09:14:59;;;;;;;22.73;17.33;;;;;;;12.59;36.26;100939.03;5095377;28;20536;-69
2022/03/13 09:17:26;;;;;;;19.80;14.83;;;;;;;12.30;35.73;100945.59;5095360;28;20180;-68
2022/03/13 09:19:53;;;;;;;21.90;14.37;;;;;;;12.10;35.76;100946.47;5095329;28;20210;-68
2022/03/13 09:22:21;;;;;;;22.70;17.20;;;;;;;12.12;37.99;100948.09;5095273;28;20221;-68
2022/03/13 09:24:48;;;;;;;24.43;18.93;;;;;;;12.35;37.02;100952.31;5095192;28;20166;-69
2022/03/13 09:27:15;;;;;;;26.80;16.57;;;;;;;12.54;37.16;100946.25;5095330;28;20182;-69
2022/03/13 09:29:41;;;;;;;16.47;14.77;;;;;;;12.34;36.30;100940.13;5095220;28;20181;-68
2022/03/13 09:32:08;;;;;;;18.87;14.70;;;;;;;12.53;37.28;100937.53;5094840;28;20205;-68
2022/03/13 09:34:34;;;;;;;21.60;14.77;;;;;;;12.65;36.28;100928.25;5095465;28;20174;-69
2022/03/13 09:37:01;;;;;;;17.47;15.33;;;;;;;12.74;36.03;100929.56;5094965;28;20186;-69
2022/03/13 09:39:29;;;;;;;21.07;15.37;;;;;;;12.98;37.00;100922.28;5094859;28;20218;-69
2022/03/13 09:41:56;;;;;;;19.37;15.13;;;;;;;13.35;35.96;100943.28;5094650;28;20210;-68
2022/03/13 09:44:24;;;;;;;18.90;14.73;;;;;;;13.57;36.23;100931.69;5095195;28;20192;-69
2022/03/13 09:46:51;;;;;;;20.43;16.33;;;;;;;13.88;35.18;100936.25;5075914;28;20186;-69
2022/03/13 09:49:20;;;;;;;17.90;14.67;;;;;;;14.11;35.14;100928.00;5094863;28;20617;-69
2022/03/13 09:51:47;;;;;;;16.83;14.67;;;;;;;13.92;36.74;100930.75;5094456;28;20212;-68
2022/03/13 09:54:13;;;;;;;20.23;13.80;;;;;;;14.12;35.41;100928.84;5094474;28;20201;-69
2022/03/13 09:56:40;;;;;;;16.90;15.07;;;;;;;14.42;34.66;100932.50;5095018;28;20170;-69
2022/03/13 09:59:07;;;;;;;16.77;14.50;;;;;;;14.74;35.46;100933.41;5094560;28;20238;-69
2022/03/13 10:01:35;;;;;;;18.00;15.43;;;;;;;14.79;34.96;100931.38;5094474;28;20201;-69
2022/03/13 10:04:04;;;;;;;15.87;14.27;;;;;;;14.56;35.59;100930.00;5094345;28;20193;-69
2022/03/13 10:06:33;;;;;;;22.97;15.03;;;;;;;14.55;35.87;100925.66;5094562;28;20178;-69
2022/03/13 10:09:26;;;;;;;21.87;15.10;;;;;;;14.88;36.33;100914.19;5094146;28;20186;-69
2022/03/13 10:12:03;;;;;;;16.17;14.57;;;;;;;15.21;36.55;100918.47;5094113;28;20721;-68
2022/03/13 10:14:30;;;;;;;16.60;14.80;;;;;;;15.26;35.22;100911.16;5094423;28;20184;-69
2022/03/13 10:16:57;;;;;;;15.40;13.80;;;;;;;15.51;35.88;100914.09;5094874;28;20532;-69
2022/03/13 10:19:28;;;;;;;15.23;13.57;;;;;;;15.56;36.67;100913.81;5093944;28;20206;-69
2022/03/13 10:22:03;;;;;;;16.10;14.37;;;;;;;15.74;35.71;100918.03;5093863;28;20703;-69
2022/03/13 10:24:41;;;;;;;16.03;14.37;;;;;;;15.96;34.86;100910.53;5093951;28;20173;-69
2022/03/13 10:27:10;;;;;;;15.30;13.77;;;;;;;16.04;36.19;100907.41;5094296;28;20174;-69
2022/03/13 10:29:37;;;;;;;14.80;13.23;;;;;;;16.14;35.27;100913.81;5093717;28;20178;-70
2022/03/13 10:32:05;;;;;;;18.90;14.60;;;;;;;16.02;36.08;100909.31;5094041;28;20220;-69
2022/03/13 10:34:33;;;;;;;15.60;14.13;;;;;;;15.95;35.84;100903.53;5075858;28;20582;-69
2022/03/13 10:37:03;;;;;;;20.27;15.70;;;;;;;15.87;35.59;100902.31;5094301;28;20521;-69
2022/03/13 10:39:31;;;;;;;16.27;14.53;;;;;;;16.12;35.84;100899.88;5093933;28;20204;-69
2022/03/13 10:42:04;;;;;;;16.57;13.57;;;;;;;16.18;37.39;100902.13;5093604;28;20201;-69
2022/03/13 10:44:36;;;;;;;14.43;13.17;;;;;;;16.18;38.46;100896.00;5093955;28;20166;-69
2022/03/13 10:47:09;;;;;;;15.43;13.87;;;;;;;16.23;38.17;100894.78;5093819;28;20193;-69
2022/03/13 10:49:41;;;;;;;13.70;12.40;;;;;;;16.43;38.33;100888.25;5093541;28;20171;-69
2022/03/13 10:52:31;;;;;;;14.23;12.93;;;;;;;16.69;37.94;100881.31;5093838;28;20568;-69
2022/03/13 10:55:19;;;;;;;14.03;12.77;;;;;;;16.91;37.54;100878.13;5093467;28;20202;-69
2022/03/13 10:57:51;;;;;;;14.23;13.03;;;;;;;16.84;37.93;100876.84;5093929;28;20178;-69
2022/03/13 11:00:18;;;;;;;13.50;12.30;;;;;;;16.98;38.98;100878.59;5093645;28;20550;-69
2022/03/13 11:02:44;;;;;;;13.37;12.20;;;;;;;17.31;38.60;100884.31;5093339;28;20230;-69
2022/03/13 11:05:11;;;;;;;17.97;13.00;;;;;;;17.30;38.02;100866.72;5093383;28;20185;-69
2022/03/13 11:07:38;;;;;;;12.70;11.77;;;;;;;17.32;38.83;100874.56;5093388;28;20182;-69
2022/03/13 11:10:07;;;;;;;13.77;12.77;;;;;;;17.42;38.24;100862.41;5093338;28;20186;-69
2022/03/13 11:12:34;;;;;;;13.17;12.10;;;;;;;17.40;38.20;100869.59;5093613;28;20213;-69
2022/03/13 11:15:03;;;;;;;13.00;11.77;;;;;;;17.57;38.15;100861.38;5093204;28;20201;-69
2022/03/13 11:17:32;;;;;;;13.53;12.33;;;;;;;17.42;38.72;100872.97;5093218;28;20204;-70